sensor_id;sensor_type;location;lat;lon;timestamp;pressure;altitude;pressure_sealevel;temperature;humidity
76460;BME280;65299;46.084;18.762;2022-12-18T00:01:57;102079.19;;;0.59;71.04
76460;BME280;65299;46.084;18.762;2022-12-18T00:04:59;102086.47;;;0.73;69.11
76460;BME280;65299;46.084;18.762;2022-12-18T00:07:59;102091.97;;;0.96;69.19
76460;BME280;65299;46.084;18.762;2022-12-18T00:11:04;102100.22;;;0.83;69.38
76460;BME280;65299;46.084;18.762;2022-12-18T00:14:05;102107.09;;;0.84;68.52
76460;BME280;65299;46.084;18.762;2022-12-18T00:17:05;102116.56;;;0.85;68.63
76460;BME280;65299;46.084;18.762;2022-12-18T00:20:06;102123.03;;;0.73;68.12
76460;BME280;65299;46.084;18.762;2022-12-18T00:23:07;102116.25;;;0.88;68.08
76460;BME280;65299;46.084;18.762;2022-12-18T00:26:11;102123.63;;;0.93;67.75
76460;BME280;65299;46.084;18.762;2022-12-18T00:29:13;102135.63;;;1.03;67.94
76460;BME280;65299;46.084;18.762;2022-12-18T00:32:13;102139.56;;;1.07;68.12
76460;BME280;65299;46.084;18.762;2022-12-18T00:35:14;102133.69;;;1.05;67.68
76460;BME280;65299;46.084;18.762;2022-12-18T00:38:14;102144.38;;;0.94;68.12
76460;BME280;65299;46.084;18.762;2022-12-18T00:41:16;102152.53;;;0.91;68.46
76460;BME280;65299;46.084;18.762;2022-12-18T00:44:36;102159.34;;;0.84;69.15
76460;BME280;65299;46.084;18.762;2022-12-18T00:47:36;102157.63;;;0.93;68.51
76460;BME280;65299;46.084;18.762;2022-12-18T00:50:37;102157.78;;;0.91;69.32
76460;BME280;65299;46.084;18.762;2022-12-18T00:53:37;102156.28;;;0.89;68.52
76460;BME280;65299;46.084;18.762;2022-12-18T00:56:38;102169.63;;;0.85;69.13
76460;BME280;65299;46.084;18.762;2022-12-18T00:59:39;102169.56;;;0.95;68.64
76460;BME280;65299;46.084;18.762;2022-12-18T01:02:40;102174.34;;;1.00;68.66
76460;BME280;65299;46.084;18.762;2022-12-18T01:05:42;102179.41;;;1.01;69.10
76460;BME280;65299;46.084;18.762;2022-12-18T01:08:42;102178.69;;;0.91;68.60
76460;BME280;65299;46.084;18.762;2022-12-18T01:11:43;102175.41;;;0.89;69.13
76460;BME280;65299;46.084;18.762;2022-12-18T01:14:43;102183.06;;;0.47;70.52
76460;BME280;65299;46.084;18.762;2022-12-18T01:17:43;102176.69;;;0.67;69.36
76460;BME280;65299;46.084;18.762;2022-12-18T01:20:44;102178.66;;;0.65;69.11
76460;BME280;65299;46.084;18.762;2022-12-18T01:23:44;102187.56;;;0.55;69.73
76460;BME280;65299;46.084;18.762;2022-12-18T01:26:45;102190.78;;;0.49;69.95
76460;BME280;65299;46.084;18.762;2022-12-18T01:29:45;102192.97;;;0.61;69.86
76460;BME280;65299;46.084;18.762;2022-12-18T01:32:46;102191.59;;;0.67;69.33
76460;BME280;65299;46.084;18.762;2022-12-18T01:35:46;102187.09;;;0.77;69.33
76460;BME280;65299;46.084;18.762;2022-12-18T01:38:47;102191.53;;;0.59;70.62
76460;BME280;65299;46.084;18.762;2022-12-18T01:41:47;102195.16;;;0.66;70.13
76460;BME280;65299;46.084;18.762;2022-12-18T01:48:16;102201.72;;;0.70;69.59
76460;BME280;65299;46.084;18.762;2022-12-18T01:51:16;102203.38;;;0.71;69.79
76460;BME280;65299;46.084;18.762;2022-12-18T01:54:17;102205.38;;;0.59;69.33
76460;BME280;65299;46.084;18.762;2022-12-18T01:57:18;102208.09;;;0.50;69.98
76460;BME280;65299;46.084;18.762;2022-12-18T02:00:21;102210.91;;;0.56;69.86
76460;BME280;65299;46.084;18.762;2022-12-18T02:03:22;102218.81;;;0.29;70.79
76460;BME280;65299;46.084;18.762;2022-12-18T02:06:31;102220.44;;;-0.05;71.88
76460;BME280;65299;46.084;18.762;2022-12-18T02:09:44;102218.16;;;0.27;71.21
76460;BME280;65299;46.084;18.762;2022-12-18T02:19:09;102222.13;;;0.49;70.12
76460;BME280;65299;46.084;18.762;2022-12-18T02:25:29;102221.81;;;0.34;69.99
76460;BME280;65299;46.084;18.762;2022-12-18T02:28:51;102233.31;;;0.24;70.89
76460;BME280;65299;46.084;18.762;2022-12-18T02:31:55;102225.53;;;0.32;70.57
76460;BME280;65299;46.084;18.762;2022-12-18T02:34:57;102221.78;;;0.17;70.98
76460;BME280;65299;46.084;18.762;2022-12-18T02:38:00;102232.31;;;-0.20;72.20
76460;BME280;65299;46.084;18.762;2022-12-18T02:41:02;102232.72;;;0.03;71.95
76460;BME280;65299;46.084;18.762;2022-12-18T02:44:12;102227.53;;;0.03;71.83
76460;BME280;65299;46.084;18.762;2022-12-18T02:47:15;102239.53;;;0.13;71.45
76460;BME280;65299;46.084;18.762;2022-12-18T02:50:38;102232.47;;;0.06;71.87
76460;BME280;65299;46.084;18.762;2022-12-18T02:53:49;102233.22;;;0.16;71.78
76460;BME280;65299;46.084;18.762;2022-12-18T02:56:54;102236.78;;;0.15;71.87
76460;BME280;65299;46.084;18.762;2022-12-18T03:00:20;102225.50;;;-0.04;71.57
76460;BME280;65299;46.084;18.762;2022-12-18T03:03:27;102227.41;;;-0.23;72.37
76460;BME280;65299;46.084;18.762;2022-12-18T03:06:32;102234.81;;;-0.28;72.82
76460;BME280;65299;46.084;18.762;2022-12-18T03:09:38;102231.50;;;-0.21;72.08
76460;BME280;65299;46.084;18.762;2022-12-18T03:12:46;102240.59;;;-0.25;72.56
76460;BME280;65299;46.084;18.762;2022-12-18T03:15:50;102237.00;;;-0.24;72.26
76460;BME280;65299;46.084;18.762;2022-12-18T03:18:55;102236.66;;;-0.11;72.07
76460;BME280;65299;46.084;18.762;2022-12-18T03:21:58;102244.22;;;-0.35;73.08
76460;BME280;65299;46.084;18.762;2022-12-18T03:25:03;102251.13;;;-0.17;72.65
76460;BME280;65299;46.084;18.762;2022-12-18T03:28:05;102257.09;;;-0.34;72.59
76460;BME280;65299;46.084;18.762;2022-12-18T03:31:10;102257.13;;;-0.16;72.12
76460;BME280;65299;46.084;18.762;2022-12-18T03:34:16;102262.59;;;-0.10;71.64
76460;BME280;65299;46.084;18.762;2022-12-18T03:37:20;102272.06;;;-0.36;72.71
76460;BME280;65299;46.084;18.762;2022-12-18T03:40:25;102282.34;;;-0.25;72.61
76460;BME280;65299;46.084;18.762;2022-12-18T03:50:02;102287.34;;;-0.14;71.62
76460;BME280;65299;46.084;18.762;2022-12-18T03:53:17;102295.28;;;-0.06;71.82
76460;BME280;65299;46.084;18.762;2022-12-18T03:56:22;102306.88;;;-0.18;72.50
76460;BME280;65299;46.084;18.762;2022-12-18T03:59:26;102312.88;;;-0.08;72.19
76460;BME280;65299;46.084;18.762;2022-12-18T04:02:30;102304.00;;;-0.24;72.11
76460;BME280;65299;46.084;18.762;2022-12-18T04:05:33;102312.28;;;-0.38;72.43
76460;BME280;65299;46.084;18.762;2022-12-18T04:08:34;102313.94;;;-0.37;72.75
76460;BME280;65299;46.084;18.762;2022-12-18T04:11:35;102329.22;;;-0.52;72.89
76460;BME280;65299;46.084;18.762;2022-12-18T04:14:35;102319.75;;;-0.62;73.13
76460;BME280;65299;46.084;18.762;2022-12-18T04:17:36;102325.50;;;-0.49;72.75
76460;BME280;65299;46.084;18.762;2022-12-18T04:20:37;102336.22;;;-0.43;72.72
76460;BME280;65299;46.084;18.762;2022-12-18T04:23:37;102340.28;;;-0.40;72.52
76460;BME280;65299;46.084;18.762;2022-12-18T04:26:37;102339.75;;;-0.44;73.07
76460;BME280;65299;46.084;18.762;2022-12-18T04:29:38;102342.09;;;-0.41;72.78
76460;BME280;65299;46.084;18.762;2022-12-18T04:32:38;102354.91;;;-0.66;73.90
76460;BME280;65299;46.084;18.762;2022-12-18T04:35:40;102351.72;;;-0.51;73.73
76460;BME280;65299;46.084;18.762;2022-12-18T04:38:40;102357.75;;;-0.41;73.49
76460;BME280;65299;46.084;18.762;2022-12-18T04:41:40;102372.72;;;-0.52;74.08
76460;BME280;65299;46.084;18.762;2022-12-18T04:44:41;102377.09;;;-0.34;73.28
76460;BME280;65299;46.084;18.762;2022-12-18T04:47:41;102377.94;;;-0.52;73.82
76460;BME280;65299;46.084;18.762;2022-12-18T04:50:42;102376.16;;;-0.52;73.89
76460;BME280;65299;46.084;18.762;2022-12-18T04:53:42;102374.09;;;-0.58;73.89
76460;BME280;65299;46.084;18.762;2022-12-18T04:56:43;102376.28;;;-0.63;74.29
76460;BME280;65299;46.084;18.762;2022-12-18T04:59:44;102384.25;;;-0.64;73.72
76460;BME280;65299;46.084;18.762;2022-12-18T05:02:44;102380.97;;;-0.66;73.61
76460;BME280;65299;46.084;18.762;2022-12-18T05:05:45;102387.69;;;-0.64;73.04
76460;BME280;65299;46.084;18.762;2022-12-18T05:08:45;102386.03;;;-0.65;73.22
76460;BME280;65299;46.084;18.762;2022-12-18T05:11:45;102399.63;;;-0.71;73.03
76460;BME280;65299;46.084;18.762;2022-12-18T05:14:46;102402.25;;;-0.61;73.31
76460;BME280;65299;46.084;18.762;2022-12-18T05:17:47;102409.50;;;-0.65;73.37
76460;BME280;65299;46.084;18.762;2022-12-18T05:20:49;102412.78;;;-0.63;73.35
76460;BME280;65299;46.084;18.762;2022-12-18T05:23:49;102416.94;;;-0.79;73.60
76460;BME280;65299;46.084;18.762;2022-12-18T05:26:50;102426.00;;;-0.83;73.60
76460;BME280;65299;46.084;18.762;2022-12-18T05:29:50;102420.75;;;-0.55;72.99
76460;BME280;65299;46.084;18.762;2022-12-18T05:32:51;102429.28;;;-0.43;72.68
76460;BME280;65299;46.084;18.762;2022-12-18T05:35:56;102433.94;;;-0.66;72.91
76460;BME280;65299;46.084;18.762;2022-12-18T05:38:56;102446.28;;;-0.49;73.04
76460;BME280;65299;46.084;18.762;2022-12-18T05:41:57;102457.28;;;-0.45;72.75
76460;BME280;65299;46.084;18.762;2022-12-18T05:44:57;102464.00;;;-0.43;72.88
76460;BME280;65299;46.084;18.762;2022-12-18T05:47:58;102471.53;;;-0.78;73.15
76460;BME280;65299;46.084;18.762;2022-12-18T05:51:04;102472.75;;;-0.72;73.68
76460;BME280;65299;46.084;18.762;2022-12-18T05:54:06;102470.84;;;-0.70;73.24
76460;BME280;65299;46.084;18.762;2022-12-18T05:57:06;102479.50;;;-0.79;73.65
76460;BME280;65299;46.084;18.762;2022-12-18T06:00:07;102476.88;;;-0.51;72.82
76460;BME280;65299;46.084;18.762;2022-12-18T06:03:09;102483.31;;;-0.55;73.36
76460;BME280;65299;46.084;18.762;2022-12-18T06:06:18;102478.53;;;-0.50;73.38
76460;BME280;65299;46.084;18.762;2022-12-18T06:09:19;102480.88;;;-0.37;72.76
76460;BME280;65299;46.084;18.762;2022-12-18T06:12:20;102480.59;;;-0.44;72.83
76460;BME280;65299;46.084;18.762;2022-12-18T06:15:21;102484.88;;;-0.43;72.44
76460;BME280;65299;46.084;18.762;2022-12-18T06:18:21;102486.91;;;-0.46;73.29
76460;BME280;65299;46.084;18.762;2022-12-18T06:21:22;102483.63;;;-0.39;73.55
76460;BME280;65299;46.084;18.762;2022-12-18T06:24:22;102486.50;;;-0.42;73.33
76460;BME280;65299;46.084;18.762;2022-12-18T06:27:22;102484.16;;;-0.26;72.22
76460;BME280;65299;46.084;18.762;2022-12-18T06:30:23;102488.28;;;-0.23;72.23
76460;BME280;65299;46.084;18.762;2022-12-18T06:33:26;102489.53;;;-0.37;72.39
76460;BME280;65299;46.084;18.762;2022-12-18T06:36:29;102492.41;;;-0.40;72.53
76460;BME280;65299;46.084;18.762;2022-12-18T06:39:30;102498.03;;;-0.35;72.64
76460;BME280;65299;46.084;18.762;2022-12-18T06:42:30;102508.47;;;-0.35;71.65
76460;BME280;65299;46.084;18.762;2022-12-18T06:45:32;102516.84;;;-0.41;72.04
76460;BME280;65299;46.084;18.762;2022-12-18T06:48:33;102520.16;;;-0.39;72.35
76460;BME280;65299;46.084;18.762;2022-12-18T06:51:33;102523.16;;;-0.43;72.42
76460;BME280;65299;46.084;18.762;2022-12-18T06:54:34;102532.75;;;-0.34;72.47
76460;BME280;65299;46.084;18.762;2022-12-18T06:57:34;102531.13;;;-0.26;72.48
76460;BME280;65299;46.084;18.762;2022-12-18T07:00:34;102539.22;;;-0.48;72.82
76460;BME280;65299;46.084;18.762;2022-12-18T07:03:35;102540.84;;;-0.47;73.19
76460;BME280;65299;46.084;18.762;2022-12-18T07:06:36;102540.03;;;-0.47;72.97
76460;BME280;65299;46.084;18.762;2022-12-18T07:09:36;102540.03;;;-0.47;72.19
76460;BME280;65299;46.084;18.762;2022-12-18T07:12:36;102547.88;;;-0.47;72.90
76460;BME280;65299;46.084;18.762;2022-12-18T07:15:37;102553.91;;;-0.28;72.47
76460;BME280;65299;46.084;18.762;2022-12-18T07:18:37;102557.19;;;-0.26;71.74
76460;BME280;65299;46.084;18.762;2022-12-18T07:21:38;102567.78;;;-0.08;71.67
76460;BME280;65299;46.084;18.762;2022-12-18T07:24:38;102570.66;;;-0.02;70.72
76460;BME280;65299;46.084;18.762;2022-12-18T07:27:39;102572.59;;;-0.13;71.28
76460;BME280;65299;46.084;18.762;2022-12-18T07:30:39;102573.13;;;-0.10;71.24
76460;BME280;65299;46.084;18.762;2022-12-18T07:33:40;102577.53;;;-0.01;71.01
76460;BME280;65299;46.084;18.762;2022-12-18T07:36:40;102587.97;;;0.09;70.68
76460;BME280;65299;46.084;18.762;2022-12-18T07:39:41;102586.88;;;0.02;70.80
76460;BME280;65299;46.084;18.762;2022-12-18T07:42:41;102587.97;;;0.09;70.79
76460;BME280;65299;46.084;18.762;2022-12-18T07:45:42;102594.44;;;0.05;70.37
76460;BME280;65299;46.084;18.762;2022-12-18T07:48:44;102591.69;;;-0.03;70.30
76460;BME280;65299;46.084;18.762;2022-12-18T07:51:44;102603.63;;;0.19;69.75
76460;BME280;65299;46.084;18.762;2022-12-18T07:54:49;102607.19;;;0.27;69.79
76460;BME280;65299;46.084;18.762;2022-12-18T07:57:50;102603.34;;;0.22;70.28
76460;BME280;65299;46.084;18.762;2022-12-18T08:00:50;102610.91;;;0.34;69.44
76460;BME280;65299;46.084;18.762;2022-12-18T08:03:52;102608.97;;;0.36;69.71
76460;BME280;65299;46.084;18.762;2022-12-18T08:06:52;102615.44;;;0.32;69.96
76460;BME280;65299;46.084;18.762;2022-12-18T08:09:53;102625.34;;;0.10;70.04
76460;BME280;65299;46.084;18.762;2022-12-18T08:12:53;102622.72;;;0.29;70.00
76460;BME280;65299;46.084;18.762;2022-12-18T08:15:57;102623.13;;;0.43;69.94
76460;BME280;65299;46.084;18.762;2022-12-18T08:18:58;102632.47;;;0.46;69.60
76460;BME280;65299;46.084;18.762;2022-12-18T08:21:58;102633.69;;;0.51;69.54
76460;BME280;65299;46.084;18.762;2022-12-18T08:24:58;102641.19;;;0.73;68.90
76460;BME280;65299;46.084;18.762;2022-12-18T08:27:59;102637.41;;;0.58;69.34
76460;BME280;65299;46.084;18.762;2022-12-18T08:30:59;102653.03;;;0.87;69.06
76460;BME280;65299;46.084;18.762;2022-12-18T08:34:00;102656.59;;;0.86;69.29
76460;BME280;65299;46.084;18.762;2022-12-18T08:37:00;102648.47;;;0.79;68.76
76460;BME280;65299;46.084;18.762;2022-12-18T08:40:01;102662.00;;;0.75;68.10
76460;BME280;65299;46.084;18.762;2022-12-18T08:43:01;102657.16;;;0.80;69.20
76460;BME280;65299;46.084;18.762;2022-12-18T08:46:22;102661.72;;;0.68;68.49
76460;BME280;65299;46.084;18.762;2022-12-18T08:49:23;102670.50;;;0.77;68.96
76460;BME280;65299;46.084;18.762;2022-12-18T08:52:24;102672.88;;;0.61;68.72
76460;BME280;65299;46.084;18.762;2022-12-18T08:55:24;102665.03;;;0.70;68.42
76460;BME280;65299;46.084;18.762;2022-12-18T08:58:25;102673.66;;;0.80;68.30
76460;BME280;65299;46.084;18.762;2022-12-18T09:01:25;102671.44;;;0.95;67.94
76460;BME280;65299;46.084;18.762;2022-12-18T09:04:25;102679.63;;;1.19;67.07
76460;BME280;65299;46.084;18.762;2022-12-18T09:07:26;102670.88;;;1.01;67.12
76460;BME280;65299;46.084;18.762;2022-12-18T09:10:26;102679.19;;;1.14;67.85
76460;BME280;65299;46.084;18.762;2022-12-18T09:13:27;102676.63;;;1.05;68.30
76460;BME280;65299;46.084;18.762;2022-12-18T09:16:28;102677.53;;;0.76;69.01
76460;BME280;65299;46.084;18.762;2022-12-18T09:19:29;102681.06;;;0.95;68.42
76460;BME280;65299;46.084;18.762;2022-12-18T09:22:29;102677.69;;;1.21;68.67
76460;BME280;65299;46.084;18.762;2022-12-18T09:25:31;102676.81;;;1.30;67.77
76460;BME280;65299;46.084;18.762;2022-12-18T09:28:33;102680.97;;;1.23;66.88
76460;BME280;65299;46.084;18.762;2022-12-18T09:31:33;102680.06;;;1.42;66.85
76460;BME280;65299;46.084;18.762;2022-12-18T09:34:34;102680.66;;;1.26;67.23
76460;BME280;65299;46.084;18.762;2022-12-18T09:37:34;102668.16;;;1.20;67.93
76460;BME280;65299;46.084;18.762;2022-12-18T09:40:41;102662.19;;;1.37;67.77
76460;BME280;65299;46.084;18.762;2022-12-18T09:43:46;102656.09;;;1.46;66.71
76460;BME280;65299;46.084;18.762;2022-12-18T09:46:51;102665.53;;;1.30;66.66
76460;BME280;65299;46.084;18.762;2022-12-18T09:49:58;102660.63;;;1.17;67.25
76460;BME280;65299;46.084;18.762;2022-12-18T09:53:07;102664.53;;;1.40;65.99
76460;BME280;65299;46.084;18.762;2022-12-18T09:56:16;102659.78;;;1.53;65.24
76460;BME280;65299;46.084;18.762;2022-12-18T09:59:35;102657.84;;;0.92;67.62
76460;BME280;65299;46.084;18.762;2022-12-18T10:02:35;102656.69;;;1.31;67.21
76460;BME280;65299;46.084;18.762;2022-12-18T10:25:55;102645.00;;;1.62;65.70
76460;BME280;65299;46.084;18.762;2022-12-18T10:28:58;102636.28;;;1.89;65.56
76460;BME280;65299;46.084;18.762;2022-12-18T10:31:59;102642.88;;;1.93;64.47
76460;BME280;65299;46.084;18.762;2022-12-18T10:34:59;102649.56;;;1.78;64.89
76460;BME280;65299;46.084;18.762;2022-12-18T10:38:29;102657.25;;;1.61;66.24
76460;BME280;65299;46.084;18.762;2022-12-18T10:41:30;102652.50;;;1.75;66.57
76460;BME280;65299;46.084;18.762;2022-12-18T10:44:32;102650.13;;;1.99;65.32
76460;BME280;65299;46.084;18.762;2022-12-18T10:47:33;102637.47;;;2.12;65.31
76460;BME280;65299;46.084;18.762;2022-12-18T10:50:36;102629.38;;;2.23;64.41
76460;BME280;65299;46.084;18.762;2022-12-18T10:53:37;102629.91;;;2.26;64.69
76460;BME280;65299;46.084;18.762;2022-12-18T10:56:40;102630.81;;;2.00;65.96
76460;BME280;65299;46.084;18.762;2022-12-18T10:59:51;102624.97;;;2.23;66.04
76460;BME280;65299;46.084;18.762;2022-12-18T11:02:52;102630.69;;;2.44;66.16
76460;BME280;65299;46.084;18.762;2022-12-18T11:06:05;102637.81;;;2.34;67.19
76460;BME280;65299;46.084;18.762;2022-12-18T11:09:19;102643.91;;;2.17;67.34
76460;BME280;65299;46.084;18.762;2022-12-18T11:12:22;102634.25;;;2.35;66.43
76460;BME280;65299;46.084;18.762;2022-12-18T11:15:27;102636.22;;;2.59;65.90
76460;BME280;65299;46.084;18.762;2022-12-18T11:18:32;102645.31;;;2.47;66.41
76460;BME280;65299;46.084;18.762;2022-12-18T11:21:39;102646.47;;;2.52;66.05
76460;BME280;65299;46.084;18.762;2022-12-18T11:24:40;102650.59;;;2.55;66.26
76460;BME280;65299;46.084;18.762;2022-12-18T11:27:54;102654.22;;;2.80;66.21
76460;BME280;65299;46.084;18.762;2022-12-18T11:34:28;102655.03;;;3.06;65.58
76460;BME280;65299;46.084;18.762;2022-12-18T11:37:31;102653.16;;;2.90;65.65
76460;BME280;65299;46.084;18.762;2022-12-18T11:40:36;102657.16;;;3.02;65.52
76460;BME280;65299;46.084;18.762;2022-12-18T11:44:01;102658.53;;;2.63;66.02
76460;BME280;65299;46.084;18.762;2022-12-18T11:50:32;102655.25;;;2.87;65.85
76460;BME280;65299;46.084;18.762;2022-12-18T11:53:34;102655.81;;;2.73;65.93
76460;BME280;65299;46.084;18.762;2022-12-18T11:56:43;102653.09;;;2.82;66.69
76460;BME280;65299;46.084;18.762;2022-12-18T12:00:07;102638.50;;;2.80;66.79
76460;BME280;65299;46.084;18.762;2022-12-18T12:03:20;102635.50;;;3.00;65.66
76460;BME280;65299;46.084;18.762;2022-12-18T12:09:47;102643.22;;;2.76;67.13
76460;BME280;65299;46.084;18.762;2022-12-18T12:19:36;102617.19;;;3.08;66.32
76460;BME280;65299;46.084;18.762;2022-12-18T12:23:04;102614.88;;;3.05;66.95
76460;BME280;65299;46.084;18.762;2022-12-18T12:26:14;102615.25;;;3.18;66.97
76460;BME280;65299;46.084;18.762;2022-12-18T12:29:42;102617.75;;;3.28;65.53
76460;BME280;65299;46.084;18.762;2022-12-18T12:39:14;102624.88;;;3.10;65.95
76460;BME280;65299;46.084;18.762;2022-12-18T12:42:37;102630.88;;;2.94;66.91
76460;BME280;65299;46.084;18.762;2022-12-18T12:46:11;102627.09;;;2.89;67.44
76460;BME280;65299;46.084;18.762;2022-12-18T12:49:19;102638.00;;;2.76;68.06
76460;BME280;65299;46.084;18.762;2022-12-18T12:55:29;102645.44;;;2.89;67.03
76460;BME280;65299;46.084;18.762;2022-12-18T12:58:45;102648.16;;;3.05;66.18
76460;BME280;65299;46.084;18.762;2022-12-18T13:02:00;102655.44;;;2.93;67.01
76460;BME280;65299;46.084;18.762;2022-12-18T13:05:26;102654.03;;;2.99;67.38
76460;BME280;65299;46.084;18.762;2022-12-18T13:08:30;102653.09;;;2.82;68.17
76460;BME280;65299;46.084;18.762;2022-12-18T13:11:40;102649.44;;;2.75;67.94
76460;BME280;65299;46.084;18.762;2022-12-18T13:15:20;102651.75;;;2.78;67.48
76460;BME280;65299;46.084;18.762;2022-12-18T13:18:22;102651.09;;;2.76;67.85
76460;BME280;65299;46.084;18.762;2022-12-18T13:21:27;102656.34;;;2.76;67.40
76460;BME280;65299;46.084;18.762;2022-12-18T13:24:30;102660.28;;;2.80;67.13
76460;BME280;65299;46.084;18.762;2022-12-18T13:30:46;102655.41;;;2.85;67.49
76460;BME280;65299;46.084;18.762;2022-12-18T13:33:47;102661.47;;;2.60;68.48
76460;BME280;65299;46.084;18.762;2022-12-18T13:36:48;102666.38;;;2.63;68.26
76460;BME280;65299;46.084;18.762;2022-12-18T13:39:49;102675.41;;;2.86;67.09
76460;BME280;65299;46.084;18.762;2022-12-18T13:42:49;102667.44;;;2.70;68.22
76460;BME280;65299;46.084;18.762;2022-12-18T13:46:42;102675.47;;;2.51;69.13
76460;BME280;65299;46.084;18.762;2022-12-18T13:49:43;102681.44;;;2.61;68.05
76460;BME280;65299;46.084;18.762;2022-12-18T13:52:44;102675.84;;;2.56;69.16
76460;BME280;65299;46.084;18.762;2022-12-18T13:55:45;102674.78;;;2.49;68.78
76460;BME280;65299;46.084;18.762;2022-12-18T13:58:45;102675.25;;;2.44;69.15
76460;BME280;65299;46.084;18.762;2022-12-18T14:01:56;102658.38;;;2.21;70.53
76460;BME280;65299;46.084;18.762;2022-12-18T14:04:56;102670.69;;;2.29;70.77
76460;BME280;65299;46.084;18.762;2022-12-18T14:08:10;102672.50;;;2.11;71.18
76460;BME280;65299;46.084;18.762;2022-12-18T14:11:22;102675.72;;;2.22;71.16
76460;BME280;65299;46.084;18.762;2022-12-18T14:14:22;102683.69;;;1.86;72.29
76460;BME280;65299;46.084;18.762;2022-12-18T14:17:23;102684.00;;;1.55;73.24
76460;BME280;65299;46.084;18.762;2022-12-18T14:20:31;102693.06;;;1.34;73.99
76460;BME280;65299;46.084;18.762;2022-12-18T14:23:41;102700.56;;;1.46;74.13
76460;BME280;65299;46.084;18.762;2022-12-18T14:26:42;102711.94;;;1.28;74.68
76460;BME280;65299;46.084;18.762;2022-12-18T14:29:43;102713.91;;;1.07;75.44
76460;BME280;65299;46.084;18.762;2022-12-18T14:32:44;102708.25;;;1.11;75.40
76460;BME280;65299;46.084;18.762;2022-12-18T14:36:04;102713.41;;;0.94;75.93
76460;BME280;65299;46.084;18.762;2022-12-18T14:39:05;102714.56;;;1.18;74.68
76460;BME280;65299;46.084;18.762;2022-12-18T14:42:10;102724.09;;;1.00;75.02
76460;BME280;65299;46.084;18.762;2022-12-18T14:45:35;102728.63;;;1.17;74.60
76460;BME280;65299;46.084;18.762;2022-12-18T14:48:40;102719.81;;;1.09;75.17
76460;BME280;65299;46.084;18.762;2022-12-18T14:51:50;102720.78;;;1.17;74.78
76460;BME280;65299;46.084;18.762;2022-12-18T14:54:52;102719.78;;;1.18;74.54
76460;BME280;65299;46.084;18.762;2022-12-18T14:57:55;102724.78;;;1.12;74.46
76460;BME280;65299;46.084;18.762;2022-12-18T15:00:56;102727.41;;;1.02;74.99
76460;BME280;65299;46.084;18.762;2022-12-18T15:03:58;102730.69;;;1.04;74.92
76460;BME280;65299;46.084;18.762;2022-12-18T15:07:13;102727.28;;;0.94;75.05
76460;BME280;65299;46.084;18.762;2022-12-18T15:10:23;102731.16;;;0.80;75.66
76460;BME280;65299;46.084;18.762;2022-12-18T15:13:25;102741.06;;;0.77;75.56
76460;BME280;65299;46.084;18.762;2022-12-18T15:16:26;102743.25;;;0.72;75.94
76460;BME280;65299;46.084;18.762;2022-12-18T15:19:37;102738.28;;;0.88;75.27
76460;BME280;65299;46.084;18.762;2022-12-18T15:22:38;102758.53;;;0.76;75.16
76460;BME280;65299;46.084;18.762;2022-12-18T15:25:39;102749.19;;;0.74;75.52
76460;BME280;65299;46.084;18.762;2022-12-18T15:28:49;102754.41;;;0.74;75.84
76460;BME280;65299;46.084;18.762;2022-12-18T15:32:05;102757.56;;;0.68;76.11
76460;BME280;65299;46.084;18.762;2022-12-18T15:35:17;102771.75;;;0.75;76.12
76460;BME280;65299;46.084;18.762;2022-12-18T15:38:18;102769.94;;;0.75;76.30
76460;BME280;65299;46.084;18.762;2022-12-18T15:41:20;102775.75;;;0.79;75.64
76460;BME280;65299;46.084;18.762;2022-12-18T15:44:23;102777.66;;;0.77;76.01
76460;BME280;65299;46.084;18.762;2022-12-18T15:47:24;102783.16;;;0.74;76.17
76460;BME280;65299;46.084;18.762;2022-12-18T15:50:25;102791.69;;;0.76;75.86
76460;BME280;65299;46.084;18.762;2022-12-18T15:53:29;102805.44;;;0.78;76.02
76460;BME280;65299;46.084;18.762;2022-12-18T15:56:30;102811.47;;;0.59;76.22
76460;BME280;65299;46.084;18.762;2022-12-18T15:59:54;102826.06;;;0.52;76.63
76460;BME280;65299;46.084;18.762;2022-12-18T16:02:58;102827.97;;;0.50;76.78
76460;BME280;65299;46.084;18.762;2022-12-18T16:05:59;102827.41;;;0.47;76.71
76460;BME280;65299;46.084;18.762;2022-12-18T16:09:02;102831.28;;;0.52;76.75
76460;BME280;65299;46.084;18.762;2022-12-18T16:12:02;102823.88;;;0.67;76.25
76460;BME280;65299;46.084;18.762;2022-12-18T16:15:05;102820.38;;;0.47;76.91
76460;BME280;65299;46.084;18.762;2022-12-18T16:18:05;102833.84;;;0.43;76.78
76460;BME280;65299;46.084;18.762;2022-12-18T16:21:07;102829.06;;;0.48;76.57
76460;BME280;65299;46.084;18.762;2022-12-18T16:24:16;102831.28;;;0.52;76.74
76460;BME280;65299;46.084;18.762;2022-12-18T16:27:17;102831.72;;;0.67;76.20
76460;BME280;65299;46.084;18.762;2022-12-18T16:30:29;102836.94;;;0.67;75.89
76460;BME280;65299;46.084;18.762;2022-12-18T16:33:30;102841.88;;;0.79;75.84
76460;BME280;65299;46.084;18.762;2022-12-18T16:36:31;102846.00;;;0.72;75.06
76460;BME280;65299;46.084;18.762;2022-12-18T16:39:32;102854.94;;;0.60;75.02
76460;BME280;65299;46.084;18.762;2022-12-18T16:42:35;102854.25;;;0.68;75.55
76460;BME280;65299;46.084;18.762;2022-12-18T16:45:36;102853.13;;;0.51;75.95
76460;BME280;65299;46.084;18.762;2022-12-18T16:48:36;102855.03;;;0.49;75.93
76460;BME280;65299;46.084;18.762;2022-12-18T16:51:37;102852.84;;;0.45;76.08
76460;BME280;65299;46.084;18.762;2022-12-18T16:54:37;102851.88;;;0.55;75.56
76460;BME280;65299;46.084;18.762;2022-12-18T16:57:38;102840.63;;;0.55;75.87
76460;BME280;65299;46.084;18.762;2022-12-18T17:00:38;102838.56;;;0.49;75.60
76460;BME280;65299;46.084;18.762;2022-12-18T17:03:40;102833.72;;;0.44;76.00
76460;BME280;65299;46.084;18.762;2022-12-18T17:06:42;102839.94;;;0.53;75.60
76460;BME280;65299;46.084;18.762;2022-12-18T17:09:43;102837.34;;;0.62;75.38